Airport View

Enter AWOS ICAO identifier for current METAR.

ex. KFNL

PANT 191753Z AUTO 14003KT 10SM SCT021 OVC060 13/08 A3016 RMK SLP213 T01280083 10133 20089 51004 TSNO VIA AUTODIAL

19 Jun 2019 18:46

Frequency: 135.75

Phone: 907-886-3246

Other Area AWOS: PAMM - PAKT - CWEK - PAHY

TAF PAKT 191740Z 1918/2018 VRB05KT P6SM SCT008 OVC050 FM192100 33008KT P6SM BKN060 FM200700 31004KT P6SM BKN060 FM201600 33008KT P6SM SCT060 AMD LTD TO CLD VIS AND WIND 2006/2015